Time;durP1;ratioP1;P1;durP2;ratioP2;P2;SDS_P1;SDS_P2;PMS_P1;PMS_P2;Temp;Humidity;BMP_temperature;BMP_pressure;BME280_temperature;BME280_humidity;BME280_pressure;Samples;Min_cycle;Max_cycle;Signal;HPM_P1;HPM_P2
2022/09/28 00:00:08;;;;;;;10.43;7.45;;;;;;;;;;5015386;28;20212;-62
2022/09/28 00:02:34;;;;;;;9.98;8.30;;;;;;;;;;5015343;28;20212;-62
2022/09/28 00:04:59;;;;;;;11.63;8.80;;;;;;;;;;5015600;28;20216;-62
2022/09/28 00:07:25;;;;;;;11.50;8.38;;;;;;;;;;5015261;28;20235;-62
2022/09/28 00:09:50;;;;;;;15.93;9.18;;;;;;;;;;5014681;28;20663;-62
2022/09/28 00:12:15;;;;;;;10.35;7.78;;;;;;;;;;5015009;28;20240;-62
2022/09/28 00:14:43;;;;;;;14.77;8.93;;;;;;;;;;5015673;28;20251;-62
2022/09/28 00:17:08;;;;;;;10.85;7.78;;;;;;;;;;5014310;28;20232;-62
2022/09/28 00:19:34;;;;;;;9.68;7.75;;;;;;;;;;5015333;28;20637;-62
2022/09/28 00:21:59;;;;;;;12.00;9.40;;;;;;;;;;5015396;28;20663;-62
2022/09/28 00:24:24;;;;;;;12.02;7.93;;;;;;;;;;5014246;28;21445;-62
2022/09/28 00:26:50;;;;;;;11.63;8.52;;;;;;;;;;5014849;28;20214;-62
2022/09/28 00:29:16;;;;;;;13.25;9.30;;;;;;;;;;5014932;28;20227;-62
2022/09/28 00:31:42;;;;;;;14.05;9.23;;;;;;;;;;5014379;28;20748;-62
2022/09/28 00:34:07;;;;;;;10.52;8.27;;;;;;;;;;5014579;28;20228;-62
2022/09/28 00:36:33;;;;;;;11.82;9.27;;;;;;;;;;5015168;28;20229;-62
2022/09/28 00:38:58;;;;;;;11.70;8.73;;;;;;;;;;5014196;28;20284;-62
2022/09/28 00:41:24;;;;;;;13.25;9.32;;;;;;;;;;5014394;28;20266;-62
2022/09/28 00:43:49;;;;;;;10.60;8.88;;;;;;;;;;5014253;28;20203;-62
2022/09/28 00:46:16;;;;;;;15.52;9.77;;;;;;;;;;5013414;28;20208;-62
2022/09/28 00:48:44;;;;;;;11.02;8.80;;;;;;;;;;5014989;28;20208;-62
2022/09/28 00:51:10;;;;;;;12.57;9.50;;;;;;;;;;5013459;28;20723;-62
2022/09/28 00:53:35;;;;;;;11.75;8.75;;;;;;;;;;5014790;28;20240;-61
2022/09/28 00:56:03;;;;;;;15.07;10.45;;;;;;;;;;5012887;28;20213;-62
2022/09/28 00:58:30;;;;;;;12.20;9.52;;;;;;;;;;5014002;28;20216;-62
2022/09/28 01:00:57;;;;;;;13.00;9.77;;;;;;;;;;5013477;28;20227;-62
2022/09/28 01:03:22;;;;;;;12.90;9.65;;;;;;;;;;5014293;28;20208;-62
2022/09/28 01:05:47;;;;;;;12.00;9.52;;;;;;;;;;5013952;28;20284;-62
2022/09/28 01:08:13;;;;;;;12.63;8.90;;;;;;;;;;5014154;28;20219;-62
2022/09/28 01:10:38;;;;;;;11.65;9.70;;;;;;;;;;5012923;28;20212;-62
2022/09/28 01:13:03;;;;;;;15.10;9.55;;;;;;;;;;5013264;28;20209;-62
2022/09/28 01:15:30;;;;;;;13.27;9.82;;;;;;;;;;5014319;28;20232;-62
2022/09/28 01:17:59;;;;;;;15.40;9.60;;;;;;;;;;5012955;28;20691;-62
2022/09/28 01:20:28;;;;;;;13.20;9.20;;;;;;;;;;5011841;28;20216;-61
2022/09/28 01:22:54;;;;;;;15.75;10.63;;;;;;;;;;4996313;28;20270;-61
2022/09/28 01:25:26;;;;;;;13.18;10.18;;;;;;;;;;5003265;28;20325;-61
2022/09/28 01:27:57;;;;;;;13.20;10.40;;;;;;;;;;5003136;28;20291;-61
2022/09/28 01:30:22;;;;;;;12.07;9.68;;;;;;;;;;5003486;28;20212;-61
2022/09/28 01:32:50;;;;;;;13.65;10.48;;;;;;;;;;5001362;28;20777;-61
2022/09/28 01:35:15;;;;;;;11.75;9.48;;;;;;;;;;4995304;28;20235;-61
2022/09/28 01:37:43;;;;;;;13.75;9.27;;;;;;;;;;4994453;28;20208;-61
2022/09/28 01:40:08;;;;;;;13.93;10.02;;;;;;;;;;4995231;28;20208;-61
2022/09/28 01:42:34;;;;;;;15.82;10.05;;;;;;;;;;5003651;28;20219;-61
2022/09/28 01:45:01;;;;;;;13.75;9.18;;;;;;;;;;5002469;28;20374;-61
2022/09/28 01:47:26;;;;;;;14.15;9.50;;;;;;;;;;5001654;28;20213;-61
2022/09/28 01:49:54;;;;;;;12.48;9.77;;;;;;;;;;5001891;28;20350;-61
2022/09/28 01:52:22;;;;;;;14.15;9.90;;;;;;;;;;5002064;28;20262;-61
2022/09/28 01:54:50;;;;;;;14.80;9.65;;;;;;;;;;5002375;28;20261;-61
2022/09/28 01:57:17;;;;;;;13.23;10.02;;;;;;;;;;4993836;28;20220;-60
2022/09/28 01:59:45;;;;;;;15.40;9.90;;;;;;;;;;4993870;28;20223;-60
2022/09/28 02:02:13;;;;;;;13.02;10.25;;;;;;;;;;4993270;28;20251;-60
2022/09/28 02:04:39;;;;;;;13.30;10.45;;;;;;;;;;5003498;28;20247;-61
2022/09/28 02:07:10;;;;;;;14.50;10.18;;;;;;;;;;5003073;28;20216;-60
2022/09/28 02:09:38;;;;;;;16.02;11.35;;;;;;;;;;5001213;28;20216;-60
2022/09/28 02:12:07;;;;;;;15.20;10.18;;;;;;;;;;5001362;28;20220;-61
2022/09/28 02:14:32;;;;;;;13.23;10.52;;;;;;;;;;5001749;28;20216;-60
2022/09/28 02:16:57;;;;;;;16.30;11.13;;;;;;;;;;5001236;28;20262;-60
2022/09/28 02:19:24;;;;;;;13.60;10.32;;;;;;;;;;4995609;28;20240;-61
2022/09/28 02:21:58;;;;;;;12.98;10.40;;;;;;;;;;4994868;28;20488;-61
2022/09/28 02:24:26;;;;;;;15.00;10.18;;;;;;;;;;4993867;28;20213;-60
2022/09/28 02:26:51;;;;;;;12.70;9.60;;;;;;;;;;5000988;28;20593;-61
2022/09/28 02:29:17;;;;;;;14.07;10.32;;;;;;;;;;5000872;28;20212;-60
2022/09/28 02:31:42;;;;;;;16.23;10.52;;;;;;;;;;5002588;28;20255;-60
2022/09/28 02:34:07;;;;;;;13.10;10.02;;;;;;;;;;5002219;28;20221;-60
2022/09/28 02:36:33;;;;;;;14.32;10.23;;;;;;;;;;5000838;28;20595;-61
2022/09/28 02:39:00;;;;;;;13.70;10.70;;;;;;;;;;5001639;28;20307;-61
2022/09/28 02:41:37;;;;;;;12.38;10.27;;;;;;;;;;4997715;28;20209;-61
2022/09/28 02:44:07;;;;;;;16.00;10.68;;;;;;;;;;4993375;28;20765;-61
2022/09/28 02:46:37;;;;;;;15.73;10.52;;;;;;;;;;4993046;28;20204;-61
2022/09/28 02:49:21;;;;;;;15.25;11.18;;;;;;;;;;4998516;28;20259;-60
2022/09/28 02:51:51;;;;;;;13.50;10.82;;;;;;;;;;5002378;28;20224;-60
2022/09/28 02:54:25;;;;;;;15.88;11.40;;;;;;;;;;5000790;28;20378;-61
2022/09/28 02:56:51;;;;;;;13.65;10.50;;;;;;;;;;5002475;28;20216;-60
2022/09/28 02:59:18;;;;;;;14.05;10.88;;;;;;;;;;5001578;28;20228;-60
2022/09/28 03:01:43;;;;;;;14.95;10.10;;;;;;;;;;5002398;28;20216;-60
2022/09/28 03:04:18;;;;;;;16.42;10.38;;;;;;;;;;4997434;28;20602;-60
2022/09/28 03:06:45;;;;;;;14.52;11.13;;;;;;;;;;4994058;28;20566;-60
2022/09/28 03:09:18;;;;;;;16.23;11.07;;;;;;;;;;4992719;28;20231;-60
2022/09/28 03:11:48;;;;;;;16.10;11.75;;;;;;;;;;4998665;28;20270;-60
2022/09/28 03:14:13;;;;;;;19.38;11.70;;;;;;;;;;5000591;28;20314;-60
2022/09/28 03:16:41;;;;;;;14.55;11.27;;;;;;;;;;5002405;28;20212;-60
2022/09/28 03:19:07;;;;;;;15.98;10.35;;;;;;;;;;5001432;28;20220;-60
2022/09/28 03:21:32;;;;;;;12.55;10.25;;;;;;;;;;5002402;28;20618;-60
2022/09/28 03:23:57;;;;;;;17.52;11.18;;;;;;;;;;5002730;28;20691;-60
2022/09/28 03:26:22;;;;;;;15.45;11.05;;;;;;;;;;4996324;28;20507;-60
2022/09/28 03:28:48;;;;;;;16.08;11.25;;;;;;;;;;4994526;28;20219;-60
2022/09/28 03:31:13;;;;;;;19.02;11.30;;;;;;;;;;4993375;28;20228;-60
2022/09/28 03:33:38;;;;;;;14.38;10.45;;;;;;;;;;4997380;28;20754;-60
2022/09/28 03:36:04;;;;;;;20.92;12.05;;;;;;;;;;5001737;28;20216;-60
2022/09/28 03:38:30;;;;;;;17.05;11.07;;;;;;;;;;5002422;28;21141;-60
2022/09/28 03:40:55;;;;;;;14.38;11.35;;;;;;;;;;5001697;28;20705;-60
2022/09/28 03:43:21;;;;;;;18.00;12.48;;;;;;;;;;5001787;28;20270;-60
2022/09/28 03:45:52;;;;;;;15.23;11.73;;;;;;;;;;5002301;28;20240;-60
2022/09/28 03:48:20;;;;;;;15.95;12.23;;;;;;;;;;4999441;28;20695;-60
2022/09/28 03:50:45;;;;;;;17.80;12.85;;;;;;;;;;4994718;28;21069;-60
2022/09/28 03:53:10;;;;;;;15.85;11.73;;;;;;;;;;4993279;28;20215;-60
2022/09/28 03:55:37;;;;;;;22.42;12.95;;;;;;;;;;4995303;28;20255;-60
2022/09/28 03:58:02;;;;;;;18.08;11.57;;;;;;;;;;5001305;28;20204;-60
2022/09/28 04:00:27;;;;;;;15.05;11.93;;;;;;;;;;5002305;28;20698;-60
2022/09/28 04:02:53;;;;;;;19.98;12.57;;;;;;;;;;5004438;28;20295;-60
2022/09/28 04:05:18;;;;;;;14.55;11.45;;;;;;;;;;5004821;28;20785;-60
2022/09/28 04:07:43;;;;;;;16.60;11.63;;;;;;;;;;5005186;28;20208;-60
2022/09/28 04:10:08;;;;;;;14.15;9.57;;;;;;;;;;5004719;28;20329;-60
2022/09/28 04:12:34;;;;;;;14.02;10.23;;;;;;;;;;4998277;28;20217;-60
2022/09/28 04:14:59;;;;;;;17.17;11.25;;;;;;;;;;4996444;28;20229;-60
2022/09/28 04:17:24;;;;;;;12.80;10.00;;;;;;;;;;4996466;28;20610;-60
2022/09/28 04:19:50;;;;;;;11.98;9.57;;;;;;;;;;5004627;28;20667;-60
2022/09/28 04:22:15;;;;;;;18.23;10.65;;;;;;;;;;5001702;28;20270;-60
2022/09/28 04:24:42;;;;;;;16.85;10.65;;;;;;;;;;5005050;28;20251;-61
2022/09/28 04:29:51;;;;;;;16.10;9.63;;;;;;;;;;5004164;28;20223;-60
2022/09/28 04:32:16;;;;;;;12.80;8.95;;;;;;;;;;5004754;28;20220;-60
2022/09/28 04:34:42;;;;;;;10.65;6.72;;;;;;;;;;4999553;28;20232;-60
2022/09/28 04:37:07;;;;;;;11.65;7.57;;;;;;;;;;4995951;28;20212;-60
2022/09/28 04:39:32;;;;;;;12.88;7.47;;;;;;;;;;4997075;28;20208;-60
2022/09/28 04:41:58;;;;;;;15.88;6.78;;;;;;;;;;5002479;28;20747;-60
2022/09/28 04:44:23;;;;;;;12.25;6.78;;;;;;;;;;5003606;28;20213;-61
2022/09/28 04:46:49;;;;;;;9.95;6.95;;;;;;;;;;5005050;28;20287;-60
2022/09/28 04:49:14;;;;;;;9.52;6.85;;;;;;;;;;5004296;28;20691;-61
2022/09/28 04:51:39;;;;;;;9.88;6.70;;;;;;;;;;5003994;28;20212;-61
2022/09/28 04:54:05;;;;;;;10.60;8.27;;;;;;;;;;5002847;28;20979;-61
2022/09/28 04:56:30;;;;;;;9.85;7.53;;;;;;;;;;5007945;28;20216;-61
2022/09/28 04:58:55;;;;;;;9.38;6.82;;;;;;;;;;5020295;28;20678;-61
2022/09/28 05:01:23;;;;;;;10.52;6.28;;;;;;;;;;5018076;28;20294;-61
2022/09/28 05:03:48;;;;;;;10.60;7.47;;;;;;;;;;5020441;28;20216;-62
2022/09/28 05:06:14;;;;;;;11.43;7.05;;;;;;;;;;5016828;28;20209;-61
2022/09/28 05:08:40;;;;;;;10.27;7.13;;;;;;;;;;5018023;28;20201;-61
2022/09/28 05:11:05;;;;;;;10.50;7.30;;;;;;;;;;5017422;28;20679;-62
2022/09/28 05:13:31;;;;;;;10.90;7.25;;;;;;;;;;5018723;28;20542;-62
2022/09/28 05:15:57;;;;;;;9.73;7.10;;;;;;;;;;5020332;28;20204;-61
2022/09/28 05:18:22;;;;;;;12.07;7.25;;;;;;;;;;5016480;28;20619;-61
2022/09/28 05:20:47;;;;;;;8.07;6.38;;;;;;;;;;5017624;28;20231;-61
2022/09/28 05:23:14;;;;;;;12.15;6.95;;;;;;;;;;5018585;28;20212;-61
2022/09/28 05:25:39;;;;;;;11.55;7.22;;;;;;;;;;5018418;28;20212;-61
2022/09/28 05:28:05;;;;;;;10.15;6.43;;;;;;;;;;5018643;28;20613;-61
2022/09/28 05:30:30;;;;;;;10.35;6.63;;;;;;;;;;5017713;28;20212;-61
2022/09/28 05:32:55;;;;;;;10.02;6.97;;;;;;;;;;5019370;28;20220;-64
2022/09/28 05:35:21;;;;;;;9.23;6.97;;;;;;;;;;5024361;28;20242;-61
2022/09/28 05:37:46;;;;;;;10.10;7.03;;;;;;;;;;5016177;28;20574;-61
2022/09/28 05:40:11;;;;;;;10.88;7.00;;;;;;;;;;5012420;28;20227;-61
2022/09/28 05:42:37;;;;;;;11.02;7.70;;;;;;;;;;5015721;28;20215;-61
2022/09/28 05:45:02;;;;;;;11.80;7.03;;;;;;;;;;5016521;28;20698;-61
2022/09/28 05:47:28;;;;;;;10.00;7.25;;;;;;;;;;5015477;28;20228;-61
2022/09/28 05:49:53;;;;;;;10.05;6.90;;;;;;;;;;5031140;28;20279;-61
2022/09/28 05:52:18;;;;;;;11.30;7.10;;;;;;;;;;5015875;28;20216;-61
2022/09/28 05:54:44;;;;;;;11.57;7.55;;;;;;;;;;5020928;28;20310;-63
2022/09/28 05:57:09;;;;;;;13.25;7.78;;;;;;;;;;5020954;28;20208;-61
2022/09/28 05:59:35;;;;;;;11.60;7.82;;;;;;;;;;5013314;28;20215;-62
2022/09/28 06:02:00;;;;;;;11.13;7.90;;;;;;;;;;5009406;28;20757;-62
2022/09/28 06:04:26;;;;;;;10.45;7.40;;;;;;;;;;5009910;28;20209;-61
2022/09/28 06:06:51;;;;;;;8.63;6.60;;;;;;;;;;5009547;28;20239;-61
2022/09/28 06:09:16;;;;;;;8.75;6.45;;;;;;;;;;5004939;28;20259;-61
2022/09/28 06:11:41;;;;;;;11.45;7.72;;;;;;;;;;5006499;28;20216;-61
2022/09/28 06:14:07;;;;;;;12.07;8.38;;;;;;;;;;5007223;28;20220;-60
2022/09/28 06:16:33;;;;;;;10.07;7.60;;;;;;;;;;5006114;28;20244;-61
2022/09/28 06:18:59;;;;;;;12.48;7.28;;;;;;;;;;5006700;28;20212;-61
2022/09/28 06:21:24;;;;;;;8.57;6.30;;;;;;;;;;5005449;28;20251;-61
2022/09/28 06:23:49;;;;;;;9.80;7.20;;;;;;;;;;5006800;28;20568;-61
2022/09/28 06:26:15;;;;;;;10.40;7.68;;;;;;;;;;5006712;28;20603;-61
2022/09/28 06:28:40;;;;;;;11.18;7.30;;;;;;;;;;5006532;28;20339;-61
2022/09/28 06:31:06;;;;;;;9.90;7.05;;;;;;;;;;5006974;28;20684;-61
2022/09/28 06:33:31;;;;;;;9.07;6.40;;;;;;;;;;5007337;28;20213;-61
2022/09/28 06:35:57;;;;;;;8.43;5.72;;;;;;;;;;5004597;28;20220;-61
2022/09/28 06:38:23;;;;;;;8.98;5.53;;;;;;;;;;5006800;28;20215;-61
2022/09/28 06:40:48;;;;;;;8.13;5.07;;;;;;;;;;5007206;28;20217;-61
2022/09/28 06:43:14;;;;;;;9.25;4.65;;;;;;;;;;5006633;28;20219;-61
2022/09/28 06:45:39;;;;;;;6.45;4.70;;;;;;;;;;5007509;28;20733;-64
2022/09/28 06:48:05;;;;;;;9.57;5.28;;;;;;;;;;5006832;28;20208;-61
2022/09/28 06:50:32;;;;;;;8.20;4.38;;;;;;;;;;5010483;28;20203;-61
2022/09/28 06:52:57;;;;;;;8.38;4.60;;;;;;;;;;5027225;28;20236;-61
2022/09/28 06:55:22;;;;;;;9.48;4.25;;;;;;;;;;5026425;28;20254;-62
2022/09/28 06:57:55;;;;;;;7.95;4.20;;;;;;;;;;5009288;28;20300;-61
2022/09/28 07:00:21;;;;;;;4.35;3.30;;;;;;;;;;5018208;28;20224;-62
2022/09/28 07:02:46;;;;;;;8.07;3.90;;;;;;;;;;5026368;28;20261;-61
2022/09/28 07:05:12;;;;;;;6.38;4.28;;;;;;;;;;5024793;28;20219;-62
2022/09/28 07:07:39;;;;;;;7.03;3.47;;;;;;;;;;5009052;28;20213;-62
2022/09/28 07:10:04;;;;;;;5.78;3.45;;;;;;;;;;5006604;28;20227;-62
2022/09/28 07:12:31;;;;;;;6.05;3.38;;;;;;;;;;5006792;28;20208;-62
2022/09/28 07:14:57;;;;;;;5.35;3.20;;;;;;;;;;5007259;28;20225;-61
2022/09/28 07:17:22;;;;;;;6.35;2.97;;;;;;;;;;5006538;28;20608;-62
2022/09/28 07:19:51;;;;;;;3.33;2.67;;;;;;;;;;5005580;28;20217;-62
2022/09/28 07:22:18;;;;;;;4.03;2.80;;;;;;;;;;5005964;28;20273;-62
2022/09/28 07:24:43;;;;;;;6.78;2.80;;;;;;;;;;5010406;28;20469;-63
2022/09/28 07:27:09;;;;;;;6.20;2.45;;;;;;;;;;5015643;28;20318;-63
2022/09/28 07:29:34;;;;;;;4.55;2.05;;;;;;;;;;5026308;28;20801;-61
2022/09/28 07:31:59;;;;;;;3.10;2.00;;;;;;;;;;5025764;28;20318;-61
2022/09/28 07:34:25;;;;;;;2.75;1.70;;;;;;;;;;5025700;28;20212;-62
2022/09/28 07:36:57;;;;;;;4.20;1.75;;;;;;;;;;5028018;28;20211;-62
2022/09/28 07:39:23;;;;;;;2.15;1.60;;;;;;;;;;5027426;28;20211;-63
2022/09/28 07:41:48;;;;;;;3.38;1.52;;;;;;;;;;5030826;28;20286;-62
2022/09/28 07:44:14;;;;;;;3.70;1.70;;;;;;;;;;5029749;28;20218;-62
2022/09/28 07:46:39;;;;;;;3.35;1.45;;;;;;;;;;5009294;28;20694;-62
2022/09/28 07:49:05;;;;;;;2.25;1.58;;;;;;;;;;5021232;28;20643;-62
2022/09/28 07:51:30;;;;;;;2.53;1.45;;;;;;;;;;5019371;28;20232;-62
2022/09/28 07:53:56;;;;;;;2.65;1.40;;;;;;;;;;5027908;28;20259;-62
2022/09/28 07:56:21;;;;;;;3.17;1.25;;;;;;;;;;5023406;28;20679;-62
2022/09/28 07:58:46;;;;;;;2.53;1.40;;;;;;;;;;5020868;28;20647;-62
2022/09/28 08:01:15;;;;;;;2.78;1.10;;;;;;;;;;5014323;28;20220;-62
2022/09/28 08:03:43;;;;;;;2.72;1.13;;;;;;;;;;5015539;28;20224;-61
2022/09/28 08:06:11;;;;;;;2.50;1.10;;;;;;;;;;5013871;28;20212;-66
2022/09/28 08:08:37;;;;;;;2.17;1.30;;;;;;;;;;5014527;28;20578;-61
2022/09/28 08:11:02;;;;;;;5.15;1.67;;;;;;;;;;5015106;28;20204;-61
2022/09/28 08:13:27;;;;;;;1.88;0.98;;;;;;;;;;5015581;28;20240;-61
2022/09/28 08:15:53;;;;;;;7.25;1.52;;;;;;;;;;5009387;28;20228;-61
2022/09/28 08:18:19;;;;;;;4.28;1.02;;;;;;;;;;5007159;28;20204;-61
2022/09/28 08:23:27;;;;;;;3.25;1.20;;;;;;;;;;5009168;28;20626;-61
2022/09/28 08:25:53;;;;;;;7.10;1.10;;;;;;;;;;5009637;28;20663;-61
2022/09/28 08:28:18;;;;;;;4.80;1.27;;;;;;;;;;5007733;28;20750;-61
2022/09/28 08:30:44;;;;;;;4.40;0.95;;;;;;;;;;5009151;28;20239;-61
2022/09/28 08:33:10;;;;;;;2.53;0.80;;;;;;;;;;5008334;28;20299;-61
2022/09/28 08:35:35;;;;;;;3.08;0.90;;;;;;;;;;5008941;28;20221;-61
2022/09/28 08:38:02;;;;;;;4.07;0.95;;;;;;;;;;5008795;28;20698;-62
2022/09/28 08:40:27;;;;;;;2.92;0.93;;;;;;;;;;5009685;28;20717;-61
2022/09/28 08:42:55;;;;;;;2.20;0.80;;;;;;;;;;5007484;28;20211;-61
2022/09/28 08:45:22;;;;;;;3.90;0.85;;;;;;;;;;5007133;28;20722;-61
2022/09/28 08:50:44;;;;;;;3.53;0.80;;;;;;;;;;5006962;28;20622;-61
2022/09/28 08:53:36;;;;;;;2.40;0.80;;;;;;;;;;5007245;28;20726;-61
2022/09/28 08:56:02;;;;;;;1.38;0.52;;;;;;;;;;5008630;28;20695;-62
2022/09/28 08:58:29;;;;;;;4.93;1.05;;;;;;;;;;5008471;28;20215;-64
2022/09/28 09:00:54;;;;;;;2.13;0.60;;;;;;;;;;5007060;28;20213;-61
2022/09/28 09:03:21;;;;;;;5.80;0.90;;;;;;;;;;5007511;28;20219;-61
2022/09/28 09:05:50;;;;;;;4.32;0.77;;;;;;;;;;5023567;28;20205;-61
2022/09/28 09:08:18;;;;;;;2.80;0.60;;;;;;;;;;5008110;28;20627;-61
2022/09/28 09:10:46;;;;;;;9.70;1.85;;;;;;;;;;5007551;28;20687;-61
2022/09/28 09:13:12;;;;;;;2.88;0.70;;;;;;;;;;5009130;28;20320;-61
2022/09/28 09:15:39;;;;;;;2.25;0.70;;;;;;;;;;4992966;28;20301;-61
2022/09/28 09:18:08;;;;;;;2.30;0.63;;;;;;;;;;4992859;28;20482;-61
2022/09/28 09:20:36;;;;;;;1.70;0.60;;;;;;;;;;4994512;28;20217;-61
2022/09/28 09:23:09;;;;;;;2.00;0.55;;;;;;;;;;4998832;28;20243;-62
2022/09/28 09:25:40;;;;;;;1.15;0.52;;;;;;;;;;4983691;28;20525;-61
2022/09/28 09:28:24;;;;;;;1.20;0.50;;;;;;;;;;5002266;28;20603;-62
2022/09/28 09:30:55;;;;;;;1.02;0.40;;;;;;;;;;5002744;28;20223;-61
2022/09/28 09:33:23;;;;;;;2.25;0.52;;;;;;;;;;5001332;28;20634;-61
2022/09/28 09:35:53;;;;;;;3.13;0.40;;;;;;;;;;5001701;28;20224;-61
2022/09/28 09:38:20;;;;;;;3.15;0.40;;;;;;;;;;4998826;28;20220;-61
2022/09/28 09:40:51;;;;;;;2.10;0.40;;;;;;;;;;4995446;28;20418;-61
2022/09/28 09:43:32;;;;;;;3.80;0.70;;;;;;;;;;4994351;28;20514;-62
2022/09/28 09:46:13;;;;;;;2.42;0.40;;;;;;;;;;4999186;28;20221;-61
2022/09/28 09:48:44;;;;;;;2.00;0.50;;;;;;;;;;5001854;28;20216;-62
2022/09/28 09:51:15;;;;;;;0.98;0.50;;;;;;;;;;4999623;28;20731;-62
2022/09/28 09:53:41;;;;;;;1.52;0.77;;;;;;;;;;5000932;28;20712;-62
2022/09/28 09:56:10;;;;;;;2.25;0.50;;;;;;;;;;5000451;28;20217;-62
2022/09/28 09:58:36;;;;;;;2.05;0.40;;;;;;;;;;5000144;28;20742;-62
2022/09/28 10:01:08;;;;;;;1.38;0.30;;;;;;;;;;4995701;28;20220;-62
2022/09/28 10:03:33;;;;;;;1.17;0.30;;;;;;;;;;4993819;28;20726;-62
2022/09/28 10:06:00;;;;;;;1.60;0.40;;;;;;;;;;4993460;28;20254;-61
2022/09/28 10:08:25;;;;;;;1.77;0.30;;;;;;;;;;4995691;28;20212;-61
2022/09/28 10:10:52;;;;;;;0.75;0.30;;;;;;;;;;4998493;28;20211;-61
2022/09/28 10:13:17;;;;;;;0.70;0.20;;;;;;;;;;5002122;28;20687;-62
2022/09/28 10:15:42;;;;;;;0.50;0.20;;;;;;;;;;5001257;28;20255;-61
2022/09/28 10:18:09;;;;;;;1.85;0.20;;;;;;;;;;5002298;28;20397;-64
2022/09/28 10:20:37;;;;;;;0.40;0.30;;;;;;;;;;5001720;28;20240;-64
2022/09/28 10:23:03;;;;;;;1.65;0.38;;;;;;;;;;5000331;28;20211;-64
2022/09/28 10:25:28;;;;;;;1.75;0.45;;;;;;;;;;4992911;28;20544;-64
2022/09/28 10:27:55;;;;;;;1.65;0.30;;;;;;;;;;4994650;28;20209;-64
2022/09/28 10:30:22;;;;;;;1.00;0.30;;;;;;;;;;4994629;28;20221;-64
2022/09/28 10:32:48;;;;;;;1.58;0.35;;;;;;;;;;5001795;28;20223;-64
2022/09/28 10:35:13;;;;;;;1.70;0.30;;;;;;;;;;5000588;28;20236;-64
2022/09/28 10:37:54;;;;;;;2.38;0.32;;;;;;;;;;5001513;28;20521;-64
2022/09/28 10:40:28;;;;;;;0.98;0.20;;;;;;;;;;5001237;28;20711;-64
2022/09/28 10:43:01;;;;;;;1.00;0.20;;;;;;;;;;5000021;28;20254;-64
2022/09/28 10:45:26;;;;;;;0.40;0.20;;;;;;;;;;4999420;28;20228;-64
2022/09/28 10:47:52;;;;;;;2.88;0.30;;;;;;;;;;4991102;28;20331;-64
2022/09/28 10:50:20;;;;;;;4.65;0.52;;;;;;;;;;4993532;28;20332;-64
2022/09/28 10:52:45;;;;;;;2.28;0.35;;;;;;;;;;4994138;28;20208;-64
2022/09/28 10:55:19;;;;;;;4.65;0.40;;;;;;;;;;5000471;28;20228;-64
2022/09/28 10:57:45;;;;;;;2.47;0.20;;;;;;;;;;4999982;28;20299;-64
2022/09/28 11:00:28;;;;;;;2.72;0.40;;;;;;;;;;4998575;28;20228;-64
2022/09/28 11:02:53;;;;;;;1.48;0.30;;;;;;;;;;4999236;28;20204;-64
2022/09/28 11:05:19;;;;;;;0.60;0.35;;;;;;;;;;5001157;28;20443;-64
2022/09/28 11:07:45;;;;;;;2.15;0.35;;;;;;;;;;4999544;28;20211;-64
2022/09/28 11:10:20;;;;;;;2.78;0.47;;;;;;;;;;4994426;28;20523;-64
2022/09/28 11:12:45;;;;;;;1.00;0.30;;;;;;;;;;4996812;28;20281;-64
2022/09/28 11:15:16;;;;;;;2.25;0.55;;;;;;;;;;4998799;28;20703;-64
2022/09/28 11:17:43;;;;;;;4.35;0.50;;;;;;;;;;5002602;28;20230;-64
2022/09/28 11:20:23;;;;;;;0.80;0.43;;;;;;;;;;5005308;28;20298;-64
2022/09/28 11:22:52;;;;;;;1.05;0.47;;;;;;;;;;5002259;28;20259;-64
2022/09/28 11:25:22;;;;;;;1.05;0.50;;;;;;;;;;5002522;28;20215;-64
2022/09/28 11:27:51;;;;;;;2.28;0.30;;;;;;;;;;5003830;28;20212;-64
2022/09/28 11:30:22;;;;;;;2.30;0.40;;;;;;;;;;5004511;28;20224;-64
2022/09/28 11:32:47;;;;;;;2.40;0.40;;;;;;;;;;4997742;28;20707;-64
2022/09/28 11:35:16;;;;;;;1.80;0.38;;;;;;;;;;4997665;28;20232;-64
2022/09/28 11:37:54;;;;;;;1.45;0.35;;;;;;;;;;4997379;28;20216;-64
2022/09/28 11:40:26;;;;;;;1.63;0.40;;;;;;;;;;5002365;28;20223;-64
2022/09/28 11:42:55;;;;;;;1.50;0.38;;;;;;;;;;5003058;28;20217;-64
2022/09/28 11:45:26;;;;;;;1.10;0.30;;;;;;;;;;5002004;28;20254;-64
2022/09/28 11:47:56;;;;;;;3.13;0.30;;;;;;;;;;5004942;28;20212;-64
2022/09/28 11:50:28;;;;;;;2.13;0.43;;;;;;;;;;5003823;28;20761;-64
2022/09/28 11:52:56;;;;;;;0.80;0.20;;;;;;;;;;5002253;28;20331;-62
2022/09/28 11:55:24;;;;;;;0.90;0.40;;;;;;;;;;4994415;28;20731;-62
2022/09/28 11:57:53;;;;;;;2.22;0.40;;;;;;;;;;4995216;28;20246;-62
2022/09/28 12:00:19;;;;;;;2.05;0.30;;;;;;;;;;4997579;28;20216;-62
2022/09/28 12:02:49;;;;;;;2.22;0.35;;;;;;;;;;5003360;28;20627;-61
2022/09/28 12:05:16;;;;;;;1.17;0.35;;;;;;;;;;5003148;28;20220;-61
2022/09/28 12:07:46;;;;;;;1.98;0.45;;;;;;;;;;5000934;28;20213;-61
2022/09/28 12:10:13;;;;;;;3.67;0.32;;;;;;;;;;5003990;28;20501;-62
2022/09/28 12:12:42;;;;;;;0.45;0.20;;;;;;;;;;5002552;28;20219;-62
2022/09/28 12:15:16;;;;;;;1.00;0.17;;;;;;;;;;5000904;28;20221;-62
2022/09/28 12:17:42;;;;;;;1.23;0.32;;;;;;;;;;4998500;28;20761;-60
2022/09/28 12:20:32;;;;;;;2.40;0.30;;;;;;;;;;4993815;28;20209;-61
2022/09/28 12:22:58;;;;;;;0.30;0.20;;;;;;;;;;4997267;28;20650;-60
2022/09/28 12:25:23;;;;;;;2.58;0.20;;;;;;;;;;5002455;28;20709;-61
2022/09/28 12:27:50;;;;;;;1.42;0.20;;;;;;;;;;5002028;28;20212;-61
2022/09/28 12:30:18;;;;;;;0.45;0.20;;;;;;;;;;5002523;28;20228;-61
2022/09/28 12:32:57;;;;;;;1.33;0.40;;;;;;;;;;5002400;28;20212;-61
2022/09/28 12:35:33;;;;;;;1.05;0.30;;;;;;;;;;5001422;28;20571;-61
2022/09/28 12:37:58;;;;;;;0.77;0.32;;;;;;;;;;5002393;28;20208;-61
2022/09/28 12:40:32;;;;;;;2.15;0.40;;;;;;;;;;4997645;28;20217;-61
2022/09/28 12:43:04;;;;;;;2.17;0.63;;;;;;;;;;4994598;28;20217;-61
2022/09/28 12:45:49;;;;;;;0.88;0.30;;;;;;;;;;4997675;28;20548;-64
2022/09/28 12:48:17;;;;;;;0.10;0.10;;;;;;;;;;5002226;28;20426;-63
2022/09/28 12:50:46;;;;;;;1.48;0.43;;;;;;;;;;5003687;28;20747;-63
2022/09/28 12:53:18;;;;;;;0.77;0.35;;;;;;;;;;5003024;28;20243;-63
2022/09/28 12:56:01;;;;;;;1.50;0.30;;;;;;;;;;5001488;28;20628;-63
2022/09/28 12:58:29;;;;;;;0.98;0.22;;;;;;;;;;5001639;28;20204;-63
2022/09/28 13:01:00;;;;;;;1.10;0.45;;;;;;;;;;5003102;28;20671;-63
2022/09/28 13:03:31;;;;;;;0.45;0.20;;;;;;;;;;4994517;28;20626;-63
2022/09/28 13:06:04;;;;;;;2.05;0.65;;;;;;;;;;4995966;28;20213;-61
2022/09/28 13:08:38;;;;;;;1.70;0.20;;;;;;;;;;4995903;28;20246;-61
2022/09/28 13:11:14;;;;;;;0.20;0.20;;;;;;;;;;5001626;28;20223;-60
2022/09/28 13:13:47;;;;;;;1.90;0.30;;;;;;;;;;5002227;28;20564;-62
2022/09/28 13:16:16;;;;;;;1.80;0.30;;;;;;;;;;5005343;28;20232;-63
2022/09/28 13:18:45;;;;;;;0.80;0.30;;;;;;;;;;5006131;28;20263;-62
2022/09/28 13:21:25;;;;;;;1.85;0.32;;;;;;;;;;5007132;28;20239;-62
2022/09/28 13:23:51;;;;;;;1.83;0.38;;;;;;;;;;5006160;28;20216;-62
2022/09/28 13:26:18;;;;;;;1.05;0.30;;;;;;;;;;5008055;28;20211;-62
2022/09/28 13:28:44;;;;;;;1.85;0.32;;;;;;;;;;5008609;28;20267;-62
2022/09/28 13:31:09;;;;;;;0.60;0.40;;;;;;;;;;5020087;28;20208;-62
2022/09/28 13:33:35;;;;;;;2.45;0.73;;;;;;;;;;5006429;28;20219;-62
2022/09/28 13:36:04;;;;;;;2.00;0.30;;;;;;;;;;5006322;28;20225;-62
2022/09/28 13:38:30;;;;;;;0.85;0.20;;;;;;;;;;5007226;28;20208;-62
2022/09/28 13:41:02;;;;;;;1.23;0.20;;;;;;;;;;5006652;28;20212;-62
2022/09/28 13:43:30;;;;;;;0.70;0.25;;;;;;;;;;5007385;28;20212;-62
2022/09/28 13:45:57;;;;;;;1.33;0.30;;;;;;;;;;5007212;28;20307;-62
2022/09/28 13:48:24;;;;;;;0.63;0.20;;;;;;;;;;5007640;28;20307;-62
2022/09/28 13:51:03;;;;;;;2.50;0.30;;;;;;;;;;5008292;28;20243;-62
2022/09/28 13:53:32;;;;;;;0.55;0.20;;;;;;;;;;5006189;28;20212;-62
2022/09/28 13:56:16;;;;;;;0.93;0.40;;;;;;;;;;5008078;28;20236;-62
2022/09/28 13:58:43;;;;;;;2.00;0.30;;;;;;;;;;5016269;28;20462;-62
2022/09/28 14:01:09;;;;;;;0.38;0.20;;;;;;;;;;5006426;28;20287;-62
2022/09/28 14:03:52;;;;;;;1.15;0.20;;;;;;;;;;5008964;28;20347;-62
2022/09/28 14:06:23;;;;;;;0.80;0.20;;;;;;;;;;5007062;28;20208;-62
2022/09/28 14:08:57;;;;;;;1.90;0.20;;;;;;;;;;5008407;28;20295;-62
2022/09/28 14:11:24;;;;;;;2.30;0.25;;;;;;;;;;4996834;28;20211;-62
2022/09/28 14:13:57;;;;;;;0.85;0.20;;;;;;;;;;5007379;28;20596;-62
2022/09/28 14:16:22;;;;;;;0.10;0.10;;;;;;;;;;5006375;28;20719;-62
2022/09/28 14:18:51;;;;;;;0.77;0.20;;;;;;;;;;5006400;28;20208;-61
2022/09/28 14:21:20;;;;;;;0.90;0.30;;;;;;;;;;5005592;28;20224;-62
2022/09/28 14:23:55;;;;;;;1.50;0.50;;;;;;;;;;5007539;28;20211;-62
2022/09/28 14:26:25;;;;;;;3.75;0.40;;;;;;;;;;5005986;28;20281;-61
2022/09/28 14:28:54;;;;;;;1.85;0.43;;;;;;;;;;5006581;28;20320;-62
2022/09/28 14:31:23;;;;;;;1.00;0.30;;;;;;;;;;5006100;28;20220;-62
2022/09/28 14:33:53;;;;;;;0.45;0.20;;;;;;;;;;5007499;28;20204;-62
2022/09/28 14:41:08;;;;;;;1.65;0.40;;;;;;;;;;5007682;28;20228;-62
2022/09/28 14:42:06;;;;;;;4.18;0.40;;;;;;;;;;4985781;28;20216;-63
2022/09/28 14:44:31;;;;;;;1.15;0.32;;;;;;;;;;4988304;28;20284;-62
2022/09/28 14:47:20;;;;;;;1.10;0.50;;;;;;;;;;4986286;28;20633;-62
2022/09/28 14:49:46;;;;;;;1.05;0.40;;;;;;;;;;4987375;28;20579;-62